sensor_id;sensor_type;location;lat;lon;timestamp;pressure;altitude;pressure_sealevel;temperature
15626;BMP180;7912;51.376;6.126;2024-01-16T00:01:21;100551.00;;;4.90
15626;BMP180;7912;51.376;6.126;2024-01-16T00:03:48;100535.00;;;4.80
15626;BMP180;7912;51.376;6.126;2024-01-16T00:06:54;100563.00;;;4.90
15626;BMP180;7912;51.376;6.126;2024-01-16T00:09:21;100567.00;;;4.90
15626;BMP180;7912;51.376;6.126;2024-01-16T00:11:49;100559.00;;;4.80
15626;BMP180;7912;51.376;6.126;2024-01-16T00:14:16;100559.00;;;4.80
15626;BMP180;7912;51.376;6.126;2024-01-16T00:16:46;100549.00;;;4.80
15626;BMP180;7912;51.376;6.126;2024-01-16T00:19:14;100571.00;;;4.80
15626;BMP180;7912;51.376;6.126;2024-01-16T00:21:43;100566.00;;;4.80
15626;BMP180;7912;51.376;6.126;2024-01-16T00:24:14;100573.00;;;4.80
15626;BMP180;7912;51.376;6.126;2024-01-16T00:26:42;100566.00;;;4.80
15626;BMP180;7912;51.376;6.126;2024-01-16T00:29:09;100572.00;;;4.80
15626;BMP180;7912;51.376;6.126;2024-01-16T00:31:39;100560.00;;;4.80
15626;BMP180;7912;51.376;6.126;2024-01-16T00:34:09;100583.00;;;4.80
15626;BMP180;7912;51.376;6.126;2024-01-16T00:36:37;100564.00;;;4.80
15626;BMP180;7912;51.376;6.126;2024-01-16T00:39:04;100568.00;;;4.80
15626;BMP180;7912;51.376;6.126;2024-01-16T00:41:32;100577.00;;;4.80
15626;BMP180;7912;51.376;6.126;2024-01-16T00:43:59;100572.00;;;4.80
15626;BMP180;7912;51.376;6.126;2024-01-16T00:46:27;100579.00;;;4.80
15626;BMP180;7912;51.376;6.126;2024-01-16T00:48:54;100577.00;;;4.80
15626;BMP180;7912;51.376;6.126;2024-01-16T00:51:22;100587.00;;;4.90
15626;BMP180;7912;51.376;6.126;2024-01-16T00:53:49;100598.00;;;4.90
15626;BMP180;7912;51.376;6.126;2024-01-16T00:56:17;100593.00;;;4.90
15626;BMP180;7912;51.376;6.126;2024-01-16T00:58:44;100595.00;;;4.80
15626;BMP180;7912;51.376;6.126;2024-01-16T01:01:11;100592.00;;;4.80
15626;BMP180;7912;51.376;6.126;2024-01-16T01:03:39;100605.00;;;4.90
15626;BMP180;7912;51.376;6.126;2024-01-16T01:06:07;100592.00;;;4.90
15626;BMP180;7912;51.376;6.126;2024-01-16T01:08:34;100596.00;;;4.90
15626;BMP180;7912;51.376;6.126;2024-01-16T01:11:02;100608.00;;;4.90
15626;BMP180;7912;51.376;6.126;2024-01-16T01:13:30;100588.00;;;5.00
15626;BMP180;7912;51.376;6.126;2024-01-16T01:15:58;100617.00;;;5.00
15626;BMP180;7912;51.376;6.126;2024-01-16T01:18:25;100605.00;;;5.10
15626;BMP180;7912;51.376;6.126;2024-01-16T01:20:53;100613.00;;;5.00
15626;BMP180;7912;51.376;6.126;2024-01-16T01:23:20;100604.00;;;5.00
15626;BMP180;7912;51.376;6.126;2024-01-16T01:25:48;100600.00;;;5.10
15626;BMP180;7912;51.376;6.126;2024-01-16T01:28:17;100596.00;;;5.10
15626;BMP180;7912;51.376;6.126;2024-01-16T01:30:44;100613.00;;;5.10
15626;BMP180;7912;51.376;6.126;2024-01-16T01:33:12;100588.00;;;5.10
15626;BMP180;7912;51.376;6.126;2024-01-16T01:35:40;100613.00;;;5.10
15626;BMP180;7912;51.376;6.126;2024-01-16T01:38:07;100602.00;;;5.10
15626;BMP180;7912;51.376;6.126;2024-01-16T01:40:35;100618.00;;;5.20
15626;BMP180;7912;51.376;6.126;2024-01-16T01:43:23;100618.00;;;5.10
15626;BMP180;7912;51.376;6.126;2024-01-16T01:46:13;100622.00;;;5.10
15626;BMP180;7912;51.376;6.126;2024-01-16T01:48:45;100628.00;;;5.10
15626;BMP180;7912;51.376;6.126;2024-01-16T01:51:15;100603.00;;;5.10
15626;BMP180;7912;51.376;6.126;2024-01-16T01:53:45;100616.00;;;5.20
15626;BMP180;7912;51.376;6.126;2024-01-16T01:56:18;100597.00;;;5.20
15626;BMP180;7912;51.376;6.126;2024-01-16T01:58:49;100611.00;;;5.20
15626;BMP180;7912;51.376;6.126;2024-01-16T02:01:19;100599.00;;;5.20
15626;BMP180;7912;51.376;6.126;2024-01-16T02:03:52;100600.00;;;5.20
15626;BMP180;7912;51.376;6.126;2024-01-16T02:06:22;100613.00;;;5.20
15626;BMP180;7912;51.376;6.126;2024-01-16T02:08:49;100621.00;;;5.20
15626;BMP180;7912;51.376;6.126;2024-01-16T02:11:17;100626.00;;;5.20
15626;BMP180;7912;51.376;6.126;2024-01-16T02:13:44;100629.00;;;5.20
15626;BMP180;7912;51.376;6.126;2024-01-16T02:16:23;100620.00;;;5.20
15626;BMP180;7912;51.376;6.126;2024-01-16T02:18:53;100636.00;;;5.20
15626;BMP180;7912;51.376;6.126;2024-01-16T02:21:28;100618.00;;;5.20
15626;BMP180;7912;51.376;6.126;2024-01-16T02:23:58;100623.00;;;5.20
15626;BMP180;7912;51.376;6.126;2024-01-16T02:26:30;100612.00;;;5.30
15626;BMP180;7912;51.376;6.126;2024-01-16T02:29:03;100619.00;;;5.20
15626;BMP180;7912;51.376;6.126;2024-01-16T02:31:34;100606.00;;;5.30
15626;BMP180;7912;51.376;6.126;2024-01-16T02:34:02;100624.00;;;5.30
15626;BMP180;7912;51.376;6.126;2024-01-16T02:36:32;100611.00;;;5.30
15626;BMP180;7912;51.376;6.126;2024-01-16T02:39:00;100615.00;;;5.30
15626;BMP180;7912;51.376;6.126;2024-01-16T02:41:28;100612.00;;;5.30
15626;BMP180;7912;51.376;6.126;2024-01-16T02:43:55;100604.00;;;5.30
15626;BMP180;7912;51.376;6.126;2024-01-16T02:46:23;100607.00;;;5.30
15626;BMP180;7912;51.376;6.126;2024-01-16T02:48:50;100620.00;;;5.30
15626;BMP180;7912;51.376;6.126;2024-01-16T02:51:18;100612.00;;;5.30
15626;BMP180;7912;51.376;6.126;2024-01-16T02:53:45;100610.00;;;5.30
15626;BMP180;7912;51.376;6.126;2024-01-16T02:56:12;100611.00;;;5.20
15626;BMP180;7912;51.376;6.126;2024-01-16T02:58:39;100627.00;;;5.20
15626;BMP180;7912;51.376;6.126;2024-01-16T03:01:07;100614.00;;;5.20
15626;BMP180;7912;51.376;6.126;2024-01-16T03:03:34;100617.00;;;5.10
15626;BMP180;7912;51.376;6.126;2024-01-16T03:06:02;100619.00;;;5.10
15626;BMP180;7912;51.376;6.126;2024-01-16T03:08:30;100621.00;;;5.10
15626;BMP180;7912;51.376;6.126;2024-01-16T03:10:57;100621.00;;;5.00
15626;BMP180;7912;51.376;6.126;2024-01-16T03:13:25;100624.00;;;5.00
15626;BMP180;7912;51.376;6.126;2024-01-16T03:15:52;100618.00;;;5.00
15626;BMP180;7912;51.376;6.126;2024-01-16T03:18:19;100611.00;;;4.90
15626;BMP180;7912;51.376;6.126;2024-01-16T03:20:50;100608.00;;;4.90
15626;BMP180;7912;51.376;6.126;2024-01-16T03:23:18;100613.00;;;4.90
15626;BMP180;7912;51.376;6.126;2024-01-16T03:25:46;100618.00;;;4.90
15626;BMP180;7912;51.376;6.126;2024-01-16T03:28:13;100621.00;;;4.90
15626;BMP180;7912;51.376;6.126;2024-01-16T03:30:41;100613.00;;;4.80
15626;BMP180;7912;51.376;6.126;2024-01-16T03:33:09;100622.00;;;4.90
15626;BMP180;7912;51.376;6.126;2024-01-16T03:35:36;100627.00;;;4.90
15626;BMP180;7912;51.376;6.126;2024-01-16T03:38:04;100614.00;;;4.80
15626;BMP180;7912;51.376;6.126;2024-01-16T03:40:31;100626.00;;;4.90
15626;BMP180;7912;51.376;6.126;2024-01-16T03:43:01;100630.00;;;4.80
15626;BMP180;7912;51.376;6.126;2024-01-16T03:45:29;100615.00;;;4.90
15626;BMP180;7912;51.376;6.126;2024-01-16T03:56:17;100622.00;;;4.70
15626;BMP180;7912;51.376;6.126;2024-01-16T03:58:44;100622.00;;;4.70
15626;BMP180;7912;51.376;6.126;2024-01-16T04:01:11;100605.00;;;4.80
15626;BMP180;7912;51.376;6.126;2024-01-16T04:03:40;100612.00;;;4.80
15626;BMP180;7912;51.376;6.126;2024-01-16T04:06:18;100614.00;;;4.80
15626;BMP180;7912;51.376;6.126;2024-01-16T04:08:46;100608.00;;;4.80
15626;BMP180;7912;51.376;6.126;2024-01-16T04:11:14;100610.00;;;4.90
15626;BMP180;7912;51.376;6.126;2024-01-16T04:13:42;100613.00;;;4.90
15626;BMP180;7912;51.376;6.126;2024-01-16T04:16:12;100604.00;;;4.90
15626;BMP180;7912;51.376;6.126;2024-01-16T04:18:42;100609.00;;;5.00
15626;BMP180;7912;51.376;6.126;2024-01-16T04:21:10;100598.00;;;5.00
15626;BMP180;7912;51.376;6.126;2024-01-16T04:23:37;100608.00;;;5.00
15626;BMP180;7912;51.376;6.126;2024-01-16T04:26:05;100603.00;;;5.00
15626;BMP180;7912;51.376;6.126;2024-01-16T04:28:33;100581.00;;;5.00
15626;BMP180;7912;51.376;6.126;2024-01-16T04:31:01;100604.00;;;5.00
15626;BMP180;7912;51.376;6.126;2024-01-16T04:33:28;100598.00;;;5.00
15626;BMP180;7912;51.376;6.126;2024-01-16T04:35:57;100606.00;;;5.00
15626;BMP180;7912;51.376;6.126;2024-01-16T04:38:24;100595.00;;;4.90
15626;BMP180;7912;51.376;6.126;2024-01-16T04:40:52;100606.00;;;4.90
15626;BMP180;7912;51.376;6.126;2024-01-16T04:43:19;100596.00;;;4.90
15626;BMP180;7912;51.376;6.126;2024-01-16T04:45:46;100599.00;;;4.80
15626;BMP180;7912;51.376;6.126;2024-01-16T04:48:14;100601.00;;;4.80
15626;BMP180;7912;51.376;6.126;2024-01-16T04:50:41;100606.00;;;4.80
15626;BMP180;7912;51.376;6.126;2024-01-16T04:53:09;100599.00;;;4.80
15626;BMP180;7912;51.376;6.126;2024-01-16T04:55:36;100600.00;;;4.70
15626;BMP180;7912;51.376;6.126;2024-01-16T04:58:04;100602.00;;;4.70
15626;BMP180;7912;51.376;6.126;2024-01-16T05:00:32;100588.00;;;4.70
15626;BMP180;7912;51.376;6.126;2024-01-16T05:02:59;100608.00;;;4.60
15626;BMP180;7912;51.376;6.126;2024-01-16T05:05:27;100603.00;;;4.60
15626;BMP180;7912;51.376;6.126;2024-01-16T05:07:56;100596.00;;;4.50
15626;BMP180;7912;51.376;6.126;2024-01-16T05:10:23;100605.00;;;4.50
15626;BMP180;7912;51.376;6.126;2024-01-16T05:12:50;100601.00;;;4.50
15626;BMP180;7912;51.376;6.126;2024-01-16T05:15:18;100596.00;;;4.40
15626;BMP180;7912;51.376;6.126;2024-01-16T05:17:45;100604.00;;;4.40
15626;BMP180;7912;51.376;6.126;2024-01-16T05:20:13;100606.00;;;4.30
15626;BMP180;7912;51.376;6.126;2024-01-16T05:22:40;100592.00;;;4.30
15626;BMP180;7912;51.376;6.126;2024-01-16T05:25:10;100600.00;;;4.30
15626;BMP180;7912;51.376;6.126;2024-01-16T05:27:38;100593.00;;;4.30
15626;BMP180;7912;51.376;6.126;2024-01-16T05:30:05;100599.00;;;4.20
15626;BMP180;7912;51.376;6.126;2024-01-16T05:32:35;100589.00;;;4.20
15626;BMP180;7912;51.376;6.126;2024-01-16T05:35:03;100564.00;;;4.20
15626;BMP180;7912;51.376;6.126;2024-01-16T05:37:31;100586.00;;;4.10
15626;BMP180;7912;51.376;6.126;2024-01-16T05:39:58;100574.00;;;4.10
15626;BMP180;7912;51.376;6.126;2024-01-16T05:42:26;100579.00;;;4.00
15626;BMP180;7912;51.376;6.126;2024-01-16T05:44:53;100591.00;;;4.00
15626;BMP180;7912;51.376;6.126;2024-01-16T05:47:21;100580.00;;;4.00
15626;BMP180;7912;51.376;6.126;2024-01-16T05:49:54;100577.00;;;3.90
15626;BMP180;7912;51.376;6.126;2024-01-16T05:52:24;100583.00;;;3.80
15626;BMP180;7912;51.376;6.126;2024-01-16T05:54:55;100568.00;;;3.80
15626;BMP180;7912;51.376;6.126;2024-01-16T05:57:24;100572.00;;;3.70
15626;BMP180;7912;51.376;6.126;2024-01-16T05:59:52;100569.00;;;3.80
15626;BMP180;7912;51.376;6.126;2024-01-16T06:02:19;100582.00;;;3.70
15626;BMP180;7912;51.376;6.126;2024-01-16T06:04:47;100576.00;;;3.70
15626;BMP180;7912;51.376;6.126;2024-01-16T06:07:14;100569.00;;;3.70
15626;BMP180;7912;51.376;6.126;2024-01-16T06:09:44;100570.00;;;3.70
15626;BMP180;7912;51.376;6.126;2024-01-16T06:12:12;100567.00;;;3.70
15626;BMP180;7912;51.376;6.126;2024-01-16T06:14:39;100547.00;;;3.60
15626;BMP180;7912;51.376;6.126;2024-01-16T06:17:06;100559.00;;;3.50
15626;BMP180;7912;51.376;6.126;2024-01-16T06:19:34;100582.00;;;3.50
15626;BMP180;7912;51.376;6.126;2024-01-16T06:22:02;100577.00;;;3.50
15626;BMP180;7912;51.376;6.126;2024-01-16T06:24:30;100564.00;;;3.40
15626;BMP180;7912;51.376;6.126;2024-01-16T06:27:07;100564.00;;;3.40
15626;BMP180;7912;51.376;6.126;2024-01-16T06:29:34;100557.00;;;3.30
15626;BMP180;7912;51.376;6.126;2024-01-16T06:32:02;100583.00;;;3.30
15626;BMP180;7912;51.376;6.126;2024-01-16T06:34:30;100578.00;;;3.20
15626;BMP180;7912;51.376;6.126;2024-01-16T06:36:57;100576.00;;;3.20
15626;BMP180;7912;51.376;6.126;2024-01-16T06:39:25;100572.00;;;3.20
15626;BMP180;7912;51.376;6.126;2024-01-16T06:41:52;100588.00;;;3.20
15626;BMP180;7912;51.376;6.126;2024-01-16T06:44:19;100586.00;;;3.20
15626;BMP180;7912;51.376;6.126;2024-01-16T06:46:50;100590.00;;;3.10
15626;BMP180;7912;51.376;6.126;2024-01-16T06:49:17;100571.00;;;3.10
15626;BMP180;7912;51.376;6.126;2024-01-16T06:51:45;100587.00;;;3.00
15626;BMP180;7912;51.376;6.126;2024-01-16T06:54:12;100583.00;;;3.00
15626;BMP180;7912;51.376;6.126;2024-01-16T06:56:40;100583.00;;;3.00
15626;BMP180;7912;51.376;6.126;2024-01-16T06:59:07;100580.00;;;3.00
15626;BMP180;7912;51.376;6.126;2024-01-16T07:01:37;100588.00;;;3.00
15626;BMP180;7912;51.376;6.126;2024-01-16T07:04:05;100580.00;;;3.00
15626;BMP180;7912;51.376;6.126;2024-01-16T07:06:33;100596.00;;;2.90
15626;BMP180;7912;51.376;6.126;2024-01-16T07:09:00;100598.00;;;2.90
15626;BMP180;7912;51.376;6.126;2024-01-16T07:11:28;100592.00;;;2.90
15626;BMP180;7912;51.376;6.126;2024-01-16T07:13:55;100605.00;;;2.90
15626;BMP180;7912;51.376;6.126;2024-01-16T07:16:22;100602.00;;;2.90
15626;BMP180;7912;51.376;6.126;2024-01-16T07:18:50;100610.00;;;2.90
15626;BMP180;7912;51.376;6.126;2024-01-16T07:21:20;100597.00;;;2.90
15626;BMP180;7912;51.376;6.126;2024-01-16T07:23:48;100611.00;;;2.90
15626;BMP180;7912;51.376;6.126;2024-01-16T07:26:19;100621.00;;;2.90
15626;BMP180;7912;51.376;6.126;2024-01-16T07:28:46;100624.00;;;2.90
15626;BMP180;7912;51.376;6.126;2024-01-16T07:31:15;100622.00;;;2.90
15626;BMP180;7912;51.376;6.126;2024-01-16T07:34:05;100619.00;;;2.90
15626;BMP180;7912;51.376;6.126;2024-01-16T07:36:40;100621.00;;;2.80
15626;BMP180;7912;51.376;6.126;2024-01-16T07:39:08;100625.00;;;2.80
15626;BMP180;7912;51.376;6.126;2024-01-16T07:41:35;100633.00;;;2.90
15626;BMP180;7912;51.376;6.126;2024-01-16T07:44:05;100624.00;;;2.90
15626;BMP180;7912;51.376;6.126;2024-01-16T07:46:35;100618.00;;;2.80
15626;BMP180;7912;51.376;6.126;2024-01-16T07:49:03;100618.00;;;2.80
15626;BMP180;7912;51.376;6.126;2024-01-16T07:51:30;100624.00;;;2.80
15626;BMP180;7912;51.376;6.126;2024-01-16T07:54:09;100629.00;;;2.80
15626;BMP180;7912;51.376;6.126;2024-01-16T07:56:37;100622.00;;;2.90
15626;BMP180;7912;51.376;6.126;2024-01-16T07:59:05;100626.00;;;2.90
15626;BMP180;7912;51.376;6.126;2024-01-16T08:01:35;100619.00;;;3.00
15626;BMP180;7912;51.376;6.126;2024-01-16T08:04:03;100615.00;;;3.00
15626;BMP180;7912;51.376;6.126;2024-01-16T08:06:31;100631.00;;;3.00
15626;BMP180;7912;51.376;6.126;2024-01-16T08:08:59;100617.00;;;3.00
15626;BMP180;7912;51.376;6.126;2024-01-16T08:11:27;100616.00;;;3.00
15626;BMP180;7912;51.376;6.126;2024-01-16T08:13:54;100631.00;;;3.00
15626;BMP180;7912;51.376;6.126;2024-01-16T08:16:21;100633.00;;;3.10
15626;BMP180;7912;51.376;6.126;2024-01-16T08:22:49;100638.00;;;3.10
15626;BMP180;7912;51.376;6.126;2024-01-16T08:25:17;100641.00;;;3.10
15626;BMP180;7912;51.376;6.126;2024-01-16T08:27:44;100640.00;;;3.10
15626;BMP180;7912;51.376;6.126;2024-01-16T08:30:12;100644.00;;;3.10
15626;BMP180;7912;51.376;6.126;2024-01-16T08:32:40;100650.00;;;3.20
15626;BMP180;7912;51.376;6.126;2024-01-16T08:35:08;100640.00;;;3.20
15626;BMP180;7912;51.376;6.126;2024-01-16T08:37:36;100637.00;;;3.30
15626;BMP180;7912;51.376;6.126;2024-01-16T08:40:03;100638.00;;;3.30
15626;BMP180;7912;51.376;6.126;2024-01-16T08:42:31;100646.00;;;3.30
15626;BMP180;7912;51.376;6.126;2024-01-16T08:44:59;100651.00;;;3.40
15626;BMP180;7912;51.376;6.126;2024-01-16T08:47:26;100636.00;;;3.40
15626;BMP180;7912;51.376;6.126;2024-01-16T08:49:53;100653.00;;;3.40
15626;BMP180;7912;51.376;6.126;2024-01-16T08:52:21;100639.00;;;3.30
15626;BMP180;7912;51.376;6.126;2024-01-16T08:54:48;100655.00;;;3.40
15626;BMP180;7912;51.376;6.126;2024-01-16T08:57:15;100651.00;;;3.30
15626;BMP180;7912;51.376;6.126;2024-01-16T08:59:44;100646.00;;;3.40
15626;BMP180;7912;51.376;6.126;2024-01-16T09:02:11;100655.00;;;3.40
15626;BMP180;7912;51.376;6.126;2024-01-16T09:04:39;100655.00;;;3.40
15626;BMP180;7912;51.376;6.126;2024-01-16T09:07:07;100646.00;;;3.40
15626;BMP180;7912;51.376;6.126;2024-01-16T09:09:34;100640.00;;;3.40
15626;BMP180;7912;51.376;6.126;2024-01-16T09:12:02;100643.00;;;3.50
15626;BMP180;7912;51.376;6.126;2024-01-16T09:14:30;100640.00;;;3.50
15626;BMP180;7912;51.376;6.126;2024-01-16T09:16:58;100643.00;;;3.60
15626;BMP180;7912;51.376;6.126;2024-01-16T09:19:25;100639.00;;;3.60
15626;BMP180;7912;51.376;6.126;2024-01-16T09:21:53;100643.00;;;3.70
15626;BMP180;7912;51.376;6.126;2024-01-16T09:24:21;100646.00;;;3.70
15626;BMP180;7912;51.376;6.126;2024-01-16T09:26:48;100631.00;;;3.70
15626;BMP180;7912;51.376;6.126;2024-01-16T09:29:16;100629.00;;;3.80
15626;BMP180;7912;51.376;6.126;2024-01-16T09:31:43;100634.00;;;3.80
15626;BMP180;7912;51.376;6.126;2024-01-16T09:34:11;100634.00;;;3.80
15626;BMP180;7912;51.376;6.126;2024-01-16T09:36:40;100650.00;;;3.90
15626;BMP180;7912;51.376;6.126;2024-01-16T09:39:08;100642.00;;;3.90
15626;BMP180;7912;51.376;6.126;2024-01-16T09:41:35;100637.00;;;4.00
15626;BMP180;7912;51.376;6.126;2024-01-16T09:44:04;100631.00;;;4.10
15626;BMP180;7912;51.376;6.126;2024-01-16T09:46:32;100632.00;;;4.10
15626;BMP180;7912;51.376;6.126;2024-01-16T09:49:01;100628.00;;;4.00
15626;BMP180;7912;51.376;6.126;2024-01-16T09:51:31;100633.00;;;4.10
15626;BMP180;7912;51.376;6.126;2024-01-16T09:53:59;100618.00;;;4.20
15626;BMP180;7912;51.376;6.126;2024-01-16T09:56:30;100615.00;;;4.20
15626;BMP180;7912;51.376;6.126;2024-01-16T09:59:05;100617.00;;;4.20
15626;BMP180;7912;51.376;6.126;2024-01-16T10:01:33;100612.00;;;4.30
15626;BMP180;7912;51.376;6.126;2024-01-16T10:04:01;100617.00;;;4.30
15626;BMP180;7912;51.376;6.126;2024-01-16T10:06:31;100606.00;;;4.30
15626;BMP180;7912;51.376;6.126;2024-01-16T10:09:01;100621.00;;;4.30
15626;BMP180;7912;51.376;6.126;2024-01-16T10:11:29;100607.00;;;4.40
15626;BMP180;7912;51.376;6.126;2024-01-16T10:13:58;100612.00;;;4.40
15626;BMP180;7912;51.376;6.126;2024-01-16T10:16:59;100607.00;;;4.50
15626;BMP180;7912;51.376;6.126;2024-01-16T10:19:30;100612.00;;;4.50
15626;BMP180;7912;51.376;6.126;2024-01-16T10:22:12;100599.00;;;4.60
15626;BMP180;7912;51.376;6.126;2024-01-16T10:24:40;100614.00;;;4.70
15626;BMP180;7912;51.376;6.126;2024-01-16T10:27:08;100600.00;;;4.70
15626;BMP180;7912;51.376;6.126;2024-01-16T10:29:35;100614.00;;;4.70
15626;BMP180;7912;51.376;6.126;2024-01-16T10:32:27;100619.00;;;4.60
15626;BMP180;7912;51.376;6.126;2024-01-16T10:35:16;100614.00;;;4.70
15626;BMP180;7912;51.376;6.126;2024-01-16T10:40:23;100612.00;;;4.70
15626;BMP180;7912;51.376;6.126;2024-01-16T10:43:01;100599.00;;;4.70
15626;BMP180;7912;51.376;6.126;2024-01-16T10:45:28;100603.00;;;4.70
15626;BMP180;7912;51.376;6.126;2024-01-16T10:48:07;100596.00;;;4.70
15626;BMP180;7912;51.376;6.126;2024-01-16T10:50:38;100594.00;;;4.70
15626;BMP180;7912;51.376;6.126;2024-01-16T10:53:08;100588.00;;;4.80
15626;BMP180;7912;51.376;6.126;2024-01-16T10:55:52;100578.00;;;4.80
15626;BMP180;7912;51.376;6.126;2024-01-16T10:58:23;100586.00;;;4.80
15626;BMP180;7912;51.376;6.126;2024-01-16T11:00:53;100572.00;;;4.90
15626;BMP180;7912;51.376;6.126;2024-01-16T11:03:35;100581.00;;;4.90
15626;BMP180;7912;51.376;6.126;2024-01-16T11:06:06;100579.00;;;4.90
15626;BMP180;7912;51.376;6.126;2024-01-16T11:08:37;100574.00;;;4.90
15626;BMP180;7912;51.376;6.126;2024-01-16T11:11:09;100570.00;;;4.90
15626;BMP180;7912;51.376;6.126;2024-01-16T11:13:38;100576.00;;;5.00
15626;BMP180;7912;51.376;6.126;2024-01-16T11:16:06;100577.00;;;5.00
15626;BMP180;7912;51.376;6.126;2024-01-16T11:18:34;100583.00;;;5.10
15626;BMP180;7912;51.376;6.126;2024-01-16T11:21:14;100582.00;;;5.10
15626;BMP180;7912;51.376;6.126;2024-01-16T11:23:45;100565.00;;;5.20
15626;BMP180;7912;51.376;6.126;2024-01-16T11:26:32;100577.00;;;5.20
15626;BMP180;7912;51.376;6.126;2024-01-16T11:31:57;100564.00;;;5.40
15626;BMP180;7912;51.376;6.126;2024-01-16T11:37:13;100572.00;;;5.50
15626;BMP180;7912;51.376;6.126;2024-01-16T11:39:40;100550.00;;;5.50
15626;BMP180;7912;51.376;6.126;2024-01-16T11:42:08;100542.00;;;5.60
15626;BMP180;7912;51.376;6.126;2024-01-16T11:44:49;100548.00;;;5.60
15626;BMP180;7912;51.376;6.126;2024-01-16T11:47:23;100547.00;;;5.70
15626;BMP180;7912;51.376;6.126;2024-01-16T11:50:09;100554.00;;;5.70
15626;BMP180;7912;51.376;6.126;2024-01-16T11:52:44;100538.00;;;5.70
15626;BMP180;7912;51.376;6.126;2024-01-16T11:55:33;100548.00;;;5.80
15626;BMP180;7912;51.376;6.126;2024-01-16T12:01:06;100537.00;;;5.90
15626;BMP180;7912;51.376;6.126;2024-01-16T12:03:34;100543.00;;;5.90
15626;BMP180;7912;51.376;6.126;2024-01-16T12:06:03;100542.00;;;5.90
15626;BMP180;7912;51.376;6.126;2024-01-16T12:08:34;100514.00;;;6.00
15626;BMP180;7912;51.376;6.126;2024-01-16T12:11:04;100522.00;;;6.00
15626;BMP180;7912;51.376;6.126;2024-01-16T12:13:31;100525.00;;;6.00
15626;BMP180;7912;51.376;6.126;2024-01-16T12:16:02;100509.00;;;6.00
15626;BMP180;7912;51.376;6.126;2024-01-16T12:18:32;100506.00;;;6.10
15626;BMP180;7912;51.376;6.126;2024-01-16T12:21:11;100501.00;;;6.10
15626;BMP180;7912;51.376;6.126;2024-01-16T12:23:39;100492.00;;;6.20
15626;BMP180;7912;51.376;6.126;2024-01-16T12:26:22;100491.00;;;6.20
15626;BMP180;7912;51.376;6.126;2024-01-16T12:28:52;100488.00;;;6.20
15626;BMP180;7912;51.376;6.126;2024-01-16T12:31:27;100489.00;;;6.20
15626;BMP180;7912;51.376;6.126;2024-01-16T12:34:06;100502.00;;;6.20
15626;BMP180;7912;51.376;6.126;2024-01-16T12:36:37;100493.00;;;6.20
15626;BMP180;7912;51.376;6.126;2024-01-16T12:39:05;100497.00;;;6.30
15626;BMP180;7912;51.376;6.126;2024-01-16T12:41:43;100487.00;;;6.20
15626;BMP180;7912;51.376;6.126;2024-01-16T12:44:12;100484.00;;;6.30
15626;BMP180;7912;51.376;6.126;2024-01-16T12:47:02;100489.00;;;6.20
15626;BMP180;7912;51.376;6.126;2024-01-16T12:49:30;100479.00;;;6.20
15626;BMP180;7912;51.376;6.126;2024-01-16T12:52:17;100490.00;;;6.20
15626;BMP180;7912;51.376;6.126;2024-01-16T12:54:58;100481.00;;;6.20
15626;BMP180;7912;51.376;6.126;2024-01-16T12:57:26;100478.00;;;6.20
15626;BMP180;7912;51.376;6.126;2024-01-16T12:59:54;100491.00;;;6.20
15626;BMP180;7912;51.376;6.126;2024-01-16T13:02:25;100487.00;;;6.20
15626;BMP180;7912;51.376;6.126;2024-01-16T13:05:00;100485.00;;;6.20
15626;BMP180;7912;51.376;6.126;2024-01-16T13:07:30;100480.00;;;6.30
15626;BMP180;7912;51.376;6.126;2024-01-16T13:10:12;100490.00;;;6.30
15626;BMP180;7912;51.376;6.126;2024-01-16T13:12:40;100465.00;;;6.30
15626;BMP180;7912;51.376;6.126;2024-01-16T13:15:08;100486.00;;;6.30
15626;BMP180;7912;51.376;6.126;2024-01-16T13:17:38;100484.00;;;6.40
15626;BMP180;7912;51.376;6.126;2024-01-16T13:20:07;100474.00;;;6.50
15626;BMP180;7912;51.376;6.126;2024-01-16T13:22:36;100465.00;;;6.60
15626;BMP180;7912;51.376;6.126;2024-01-16T13:25:13;100459.00;;;6.80
15626;BMP180;7912;51.376;6.126;2024-01-16T13:27:41;100470.00;;;7.00
15626;BMP180;7912;51.376;6.126;2024-01-16T13:30:09;100473.00;;;7.30
15626;BMP180;7912;51.376;6.126;2024-01-16T13:32:38;100463.00;;;7.60
15626;BMP180;7912;51.376;6.126;2024-01-16T13:35:05;100455.00;;;7.90
15626;BMP180;7912;51.376;6.126;2024-01-16T13:37:36;100444.00;;;8.30
15626;BMP180;7912;51.376;6.126;2024-01-16T13:40:06;100449.00;;;8.70
15626;BMP180;7912;51.376;6.126;2024-01-16T13:42:39;100439.00;;;9.00
15626;BMP180;7912;51.376;6.126;2024-01-16T13:45:07;100425.00;;;9.20
15626;BMP180;7912;51.376;6.126;2024-01-16T13:47:37;100426.00;;;9.40
15626;BMP180;7912;51.376;6.126;2024-01-16T13:50:09;100426.00;;;9.50
15626;BMP180;7912;51.376;6.126;2024-01-16T13:52:37;100442.00;;;9.70
15626;BMP180;7912;51.376;6.126;2024-01-16T13:55:06;100419.00;;;9.90
15626;BMP180;7912;51.376;6.126;2024-01-16T13:57:33;100426.00;;;10.00
15626;BMP180;7912;51.376;6.126;2024-01-16T14:00:10;100428.00;;;10.10
15626;BMP180;7912;51.376;6.126;2024-01-16T14:02:46;100428.00;;;10.20
15626;BMP180;7912;51.376;6.126;2024-01-16T14:05:19;100418.00;;;10.10
15626;BMP180;7912;51.376;6.126;2024-01-16T14:07:51;100431.00;;;10.10
15626;BMP180;7912;51.376;6.126;2024-01-16T14:10:21;100430.00;;;10.20
15626;BMP180;7912;51.376;6.126;2024-01-16T14:12:51;100437.00;;;10.30
15626;BMP180;7912;51.376;6.126;2024-01-16T14:15:22;100418.00;;;10.20
15626;BMP180;7912;51.376;6.126;2024-01-16T14:17:56;100432.00;;;10.10
15626;BMP180;7912;51.376;6.126;2024-01-16T14:20:25;100437.00;;;10.00
15626;BMP180;7912;51.376;6.126;2024-01-16T14:22:59;100427.00;;;9.90
15626;BMP180;7912;51.376;6.126;2024-01-16T14:25:27;100435.00;;;9.90
15626;BMP180;7912;51.376;6.126;2024-01-16T14:28:02;100431.00;;;9.90
15626;BMP180;7912;51.376;6.126;2024-01-16T14:30:44;100432.00;;;9.90
15626;BMP180;7912;51.376;6.126;2024-01-16T14:33:13;100439.00;;;9.80
15626;BMP180;7912;51.376;6.126;2024-01-16T14:35:42;100425.00;;;9.80
15626;BMP180;7912;51.376;6.126;2024-01-16T14:38:13;100399.00;;;9.70
15626;BMP180;7912;51.376;6.126;2024-01-16T14:40:43;100405.00;;;9.60
15626;BMP180;7912;51.376;6.126;2024-01-16T14:43:11;100411.00;;;9.60
15626;BMP180;7912;51.376;6.126;2024-01-16T14:45:39;100396.00;;;9.50
15626;BMP180;7912;51.376;6.126;2024-01-16T14:48:06;100416.00;;;9.50
15626;BMP180;7912;51.376;6.126;2024-01-16T14:50:36;100387.00;;;9.40
15626;BMP180;7912;51.376;6.126;2024-01-16T14:53:04;100397.00;;;9.30
15626;BMP180;7912;51.376;6.126;2024-01-16T14:55:37;100402.00;;;9.10
15626;BMP180;7912;51.376;6.126;2024-01-16T14:58:07;100392.00;;;8.90
15626;BMP180;7912;51.376;6.126;2024-01-16T15:00:36;100403.00;;;8.70